sensor_id;sensor_type;location;lat;lon;timestamp;pressure;altitude;pressure_sealevel;temperature;humidity
36014;BME280;22275;43.208;27.620;2022-09-09T00:00:30;101465.28;;;23.00;100.00
36014;BME280;22275;43.208;27.620;2022-09-09T00:03:04;101465.88;;;22.94;100.00
36014;BME280;22275;43.208;27.620;2022-09-09T00:05:42;101459.13;;;22.90;100.00
36014;BME280;22275;43.208;27.620;2022-09-09T00:08:15;101459.59;;;23.03;100.00
36014;BME280;22275;43.208;27.620;2022-09-09T00:10:49;101452.06;;;23.07;100.00
36014;BME280;22275;43.208;27.620;2022-09-09T00:13:22;101460.97;;;23.07;100.00
36014;BME280;22275;43.208;27.620;2022-09-09T00:15:57;101446.69;;;22.89;100.00
36014;BME280;22275;43.208;27.620;2022-09-09T00:18:31;101450.28;;;22.80;100.00
36014;BME280;22275;43.208;27.620;2022-09-09T00:21:06;101452.91;;;22.62;100.00
36014;BME280;22275;43.208;27.620;2022-09-09T00:23:37;101446.13;;;22.41;100.00
36014;BME280;22275;43.208;27.620;2022-09-09T00:26:09;101452.59;;;22.20;100.00
36014;BME280;22275;43.208;27.620;2022-09-09T00:28:50;101458.78;;;22.30;100.00
36014;BME280;22275;43.208;27.620;2022-09-09T00:31:24;101466.91;;;21.65;100.00
36014;BME280;22275;43.208;27.620;2022-09-09T00:33:53;101465.75;;;21.67;100.00
36014;BME280;22275;43.208;27.620;2022-09-09T00:36:23;101452.53;;;21.47;100.00
36014;BME280;22275;43.208;27.620;2022-09-09T00:38:56;101458.59;;;21.01;100.00
36014;BME280;22275;43.208;27.620;2022-09-09T00:41:32;101456.66;;;21.22;100.00
36014;BME280;22275;43.208;27.620;2022-09-09T00:44:15;101460.47;;;21.19;100.00
36014;BME280;22275;43.208;27.620;2022-09-09T00:47:04;101443.38;;;21.30;100.00
36014;BME280;22275;43.208;27.620;2022-09-09T00:49:45;101443.50;;;21.48;100.00
36014;BME280;22275;43.208;27.620;2022-09-09T00:52:25;101443.78;;;21.35;100.00
36014;BME280;22275;43.208;27.620;2022-09-09T00:55:03;101457.63;;;21.21;100.00
36014;BME280;22275;43.208;27.620;2022-09-09T00:57:32;101455.25;;;21.08;100.00
36014;BME280;22275;43.208;27.620;2022-09-09T01:00:18;101454.13;;;21.11;100.00
36014;BME280;22275;43.208;27.620;2022-09-09T01:02:53;101450.38;;;20.83;100.00
36014;BME280;22275;43.208;27.620;2022-09-09T01:05:33;101450.81;;;20.79;100.00
36014;BME280;22275;43.208;27.620;2022-09-09T01:08:05;101452.09;;;21.03;100.00
36014;BME280;22275;43.208;27.620;2022-09-09T01:10:43;101452.78;;;20.86;100.00
36014;BME280;22275;43.208;27.620;2022-09-09T01:13:19;101458.88;;;20.88;100.00
36014;BME280;22275;43.208;27.620;2022-09-09T01:15:49;101459.56;;;20.71;100.00
36014;BME280;22275;43.208;27.620;2022-09-09T01:18:21;101448.97;;;20.70;100.00
36014;BME280;22275;43.208;27.620;2022-09-09T01:21:04;101455.31;;;20.59;100.00
36014;BME280;22275;43.208;27.620;2022-09-09T01:23:48;101451.94;;;20.76;100.00
36014;BME280;22275;43.208;27.620;2022-09-09T01:26:25;101456.63;;;20.93;100.00
36014;BME280;22275;43.208;27.620;2022-09-09T01:28:53;101452.28;;;21.11;100.00
36014;BME280;22275;43.208;27.620;2022-09-09T01:31:23;101454.78;;;21.32;100.00
36014;BME280;22275;43.208;27.620;2022-09-09T01:33:53;101443.06;;;21.43;100.00
36014;BME280;22275;43.208;27.620;2022-09-09T01:36:26;101440.53;;;21.32;100.00
36014;BME280;22275;43.208;27.620;2022-09-09T01:38:55;101437.16;;;21.39;100.00
36014;BME280;22275;43.208;27.620;2022-09-09T01:41:24;101433.63;;;21.48;100.00
36014;BME280;22275;43.208;27.620;2022-09-09T01:43:53;101439.66;;;21.60;100.00
36014;BME280;22275;43.208;27.620;2022-09-09T01:46:22;101441.13;;;21.35;100.00
36014;BME280;22275;43.208;27.620;2022-09-09T01:48:50;101446.75;;;21.42;100.00
36014;BME280;22275;43.208;27.620;2022-09-09T01:51:19;101444.72;;;21.63;100.00
36014;BME280;22275;43.208;27.620;2022-09-09T01:53:46;101448.31;;;21.35;100.00
36014;BME280;22275;43.208;27.620;2022-09-09T01:56:25;101457.50;;;21.23;100.00
36014;BME280;22275;43.208;27.620;2022-09-09T01:59:06;101455.47;;;20.86;100.00
36014;BME280;22275;43.208;27.620;2022-09-09T02:01:43;101451.81;;;21.06;100.00
36014;BME280;22275;43.208;27.620;2022-09-09T02:04:36;101443.94;;;21.24;100.00
36014;BME280;22275;43.208;27.620;2022-09-09T02:07:09;101450.97;;;21.44;100.00
36014;BME280;22275;43.208;27.620;2022-09-09T02:09:40;101445.91;;;21.41;100.00
36014;BME280;22275;43.208;27.620;2022-09-09T02:12:14;101451.09;;;21.43;100.00
36014;BME280;22275;43.208;27.620;2022-09-09T02:14:48;101449.03;;;21.37;100.00
36014;BME280;22275;43.208;27.620;2022-09-09T02:17:20;101445.91;;;21.51;100.00
36014;BME280;22275;43.208;27.620;2022-09-09T02:19:53;101445.06;;;21.41;100.00
36014;BME280;22275;43.208;27.620;2022-09-09T02:22:24;101460.41;;;21.58;100.00
36014;BME280;22275;43.208;27.620;2022-09-09T02:24:56;101454.91;;;21.50;100.00
36014;BME280;22275;43.208;27.620;2022-09-09T02:27:27;101457.78;;;21.10;100.00
36014;BME280;22275;43.208;27.620;2022-09-09T02:29:56;101457.16;;;20.68;100.00
36014;BME280;22275;43.208;27.620;2022-09-09T02:32:25;101452.06;;;20.75;100.00
36014;BME280;22275;43.208;27.620;2022-09-09T02:34:57;101457.59;;;20.92;100.00
36014;BME280;22275;43.208;27.620;2022-09-09T02:37:29;101458.56;;;20.72;100.00
36014;BME280;22275;43.208;27.620;2022-09-09T02:39:58;101456.72;;;20.23;100.00
36014;BME280;22275;43.208;27.620;2022-09-09T02:42:27;101451.63;;;20.50;100.00
36014;BME280;22275;43.208;27.620;2022-09-09T02:44:54;101458.53;;;20.53;100.00
36014;BME280;22275;43.208;27.620;2022-09-09T02:47:26;101453.88;;;20.45;100.00
36014;BME280;22275;43.208;27.620;2022-09-09T02:50:04;101456.81;;;20.52;100.00
36014;BME280;22275;43.208;27.620;2022-09-09T02:52:40;101446.28;;;20.70;100.00
36014;BME280;22275;43.208;27.620;2022-09-09T02:55:14;101451.47;;;20.52;100.00
36014;BME280;22275;43.208;27.620;2022-09-09T02:57:46;101445.56;;;20.58;100.00
36014;BME280;22275;43.208;27.620;2022-09-09T03:00:14;101458.56;;;20.82;100.00
36014;BME280;22275;43.208;27.620;2022-09-09T03:02:41;101457.72;;;21.00;100.00
36014;BME280;22275;43.208;27.620;2022-09-09T03:05:09;101452.66;;;20.97;100.00
36014;BME280;22275;43.208;27.620;2022-09-09T03:07:36;101454.06;;;21.01;100.00
36014;BME280;22275;43.208;27.620;2022-09-09T03:10:06;101454.25;;;21.09;100.00
36014;BME280;22275;43.208;27.620;2022-09-09T03:12:33;101459.72;;;20.98;100.00
36014;BME280;22275;43.208;27.620;2022-09-09T03:15:02;101444.06;;;20.94;100.00
36014;BME280;22275;43.208;27.620;2022-09-09T03:17:29;101448.72;;;21.01;100.00
36014;BME280;22275;43.208;27.620;2022-09-09T03:19:56;101453.69;;;21.15;100.00
36014;BME280;22275;43.208;27.620;2022-09-09T03:22:24;101455.34;;;20.97;100.00
36014;BME280;22275;43.208;27.620;2022-09-09T03:24:52;101456.63;;;21.03;100.00
36014;BME280;22275;43.208;27.620;2022-09-09T03:27:19;101464.06;;;20.90;100.00
36014;BME280;22275;43.208;27.620;2022-09-09T03:29:46;101463.53;;;20.27;100.00
36014;BME280;22275;43.208;27.620;2022-09-09T03:32:18;101473.69;;;20.33;100.00
36014;BME280;22275;43.208;27.620;2022-09-09T03:34:48;101449.81;;;20.70;100.00
36014;BME280;22275;43.208;27.620;2022-09-09T03:37:16;101447.59;;;20.94;100.00
36014;BME280;22275;43.208;27.620;2022-09-09T03:39:43;101448.72;;;21.01;100.00
36014;BME280;22275;43.208;27.620;2022-09-09T03:42:12;101446.59;;;20.95;100.00
36014;BME280;22275;43.208;27.620;2022-09-09T03:44:44;101444.25;;;21.11;100.00
36014;BME280;22275;43.208;27.620;2022-09-09T03:47:12;101450.44;;;21.22;100.00
36014;BME280;22275;43.208;27.620;2022-09-09T03:49:41;101449.31;;;21.34;100.00
36014;BME280;22275;43.208;27.620;2022-09-09T03:52:08;101453.25;;;21.20;100.00
36014;BME280;22275;43.208;27.620;2022-09-09T03:54:36;101445.34;;;20.99;100.00
36014;BME280;22275;43.208;27.620;2022-09-09T03:57:03;101461.22;;;20.72;100.00
36014;BME280;22275;43.208;27.620;2022-09-09T03:59:31;101450.97;;;20.87;100.00
36014;BME280;22275;43.208;27.620;2022-09-09T04:02:00;101443.66;;;20.98;100.00
36014;BME280;22275;43.208;27.620;2022-09-09T04:04:28;101442.22;;;21.04;100.00
36014;BME280;22275;43.208;27.620;2022-09-09T04:06:57;101449.84;;;20.89;100.00
36014;BME280;22275;43.208;27.620;2022-09-09T04:09:24;101459.13;;;20.95;100.00
36014;BME280;22275;43.208;27.620;2022-09-09T04:11:51;101454.94;;;20.83;100.00
36014;BME280;22275;43.208;27.620;2022-09-09T04:14:20;101458.00;;;20.78;100.00
36014;BME280;22275;43.208;27.620;2022-09-09T04:16:47;101452.38;;;20.72;100.00
36014;BME280;22275;43.208;27.620;2022-09-09T04:19:14;101463.38;;;21.07;100.00
36014;BME280;22275;43.208;27.620;2022-09-09T04:21:42;101454.66;;;21.24;100.00
36014;BME280;22275;43.208;27.620;2022-09-09T04:24:10;101458.31;;;21.33;100.00
36014;BME280;22275;43.208;27.620;2022-09-09T04:26:38;101458.56;;;21.58;100.00
36014;BME280;22275;43.208;27.620;2022-09-09T04:29:05;101456.56;;;21.70;100.00
36014;BME280;22275;43.208;27.620;2022-09-09T04:31:33;101463.59;;;21.81;100.00
36014;BME280;22275;43.208;27.620;2022-09-09T04:34:00;101464.56;;;21.99;100.00
36014;BME280;22275;43.208;27.620;2022-09-09T04:36:31;101454.59;;;22.18;100.00
36014;BME280;22275;43.208;27.620;2022-09-09T04:38:59;101469.78;;;22.00;100.00
36014;BME280;22275;43.208;27.620;2022-09-09T04:41:28;101462.22;;;21.76;100.00
36014;BME280;22275;43.208;27.620;2022-09-09T04:43:57;101465.88;;;21.75;100.00
36014;BME280;22275;43.208;27.620;2022-09-09T04:46:25;101467.38;;;21.12;100.00
36014;BME280;22275;43.208;27.620;2022-09-09T04:48:52;101467.81;;;21.08;100.00
36014;BME280;22275;43.208;27.620;2022-09-09T04:51:20;101463.66;;;21.52;100.00
36014;BME280;22275;43.208;27.620;2022-09-09T04:53:47;101469.00;;;21.71;100.00
36014;BME280;22275;43.208;27.620;2022-09-09T04:56:17;101464.81;;;22.05;100.00
36014;BME280;22275;43.208;27.620;2022-09-09T04:58:46;101462.66;;;22.18;100.00
36014;BME280;22275;43.208;27.620;2022-09-09T05:01:15;101463.53;;;22.37;100.00
36014;BME280;22275;43.208;27.620;2022-09-09T05:03:44;101470.22;;;21.86;100.00
36014;BME280;22275;43.208;27.620;2022-09-09T05:06:14;101467.38;;;21.97;100.00
36014;BME280;22275;43.208;27.620;2022-09-09T05:08:42;101463.59;;;21.90;100.00
36014;BME280;22275;43.208;27.620;2022-09-09T05:11:15;101455.47;;;22.37;100.00
36014;BME280;22275;43.208;27.620;2022-09-09T05:13:43;101450.22;;;22.62;100.00
36014;BME280;22275;43.208;27.620;2022-09-09T05:16:12;101453.59;;;22.19;100.00
36014;BME280;22275;43.208;27.620;2022-09-09T05:18:40;101447.44;;;22.64;100.00
36014;BME280;22275;43.208;27.620;2022-09-09T05:21:08;101448.22;;;22.47;100.00
36014;BME280;22275;43.208;27.620;2022-09-09T05:23:36;101443.94;;;22.81;100.00
36014;BME280;22275;43.208;27.620;2022-09-09T05:26:04;101440.47;;;23.06;100.00
36014;BME280;22275;43.208;27.620;2022-09-09T05:28:34;101434.66;;;23.36;100.00
36014;BME280;22275;43.208;27.620;2022-09-09T05:31:03;101438.56;;;23.60;100.00
36014;BME280;22275;43.208;27.620;2022-09-09T05:33:35;101424.38;;;23.75;100.00
36014;BME280;22275;43.208;27.620;2022-09-09T05:36:07;101414.94;;;24.05;100.00
36014;BME280;22275;43.208;27.620;2022-09-09T05:38:36;101415.03;;;24.21;100.00
36014;BME280;22275;43.208;27.620;2022-09-09T05:41:03;101414.22;;;24.21;100.00
36014;BME280;22275;43.208;27.620;2022-09-09T05:43:31;101411.31;;;24.14;100.00
36014;BME280;22275;43.208;27.620;2022-09-09T05:45:59;101412.75;;;24.42;100.00
36014;BME280;22275;43.208;27.620;2022-09-09T05:48:29;101418.47;;;24.39;100.00
36014;BME280;22275;43.208;27.620;2022-09-09T05:50:59;101415.81;;;24.55;100.00
36014;BME280;22275;43.208;27.620;2022-09-09T05:53:26;101410.50;;;24.88;100.00
36014;BME280;22275;43.208;27.620;2022-09-09T05:56:01;101413.34;;;24.86;100.00
36014;BME280;22275;43.208;27.620;2022-09-09T05:58:30;101412.88;;;25.07;100.00
36014;BME280;22275;43.208;27.620;2022-09-09T06:01:02;101413.38;;;25.43;100.00
36014;BME280;22275;43.208;27.620;2022-09-09T06:03:29;101410.47;;;25.60;100.00
36014;BME280;22275;43.208;27.620;2022-09-09T06:05:59;101408.47;;;25.62;100.00
36014;BME280;22275;43.208;27.620;2022-09-09T06:08:27;101411.81;;;25.73;100.00
36014;BME280;22275;43.208;27.620;2022-09-09T06:11:01;101423.91;;;25.93;100.00
36014;BME280;22275;43.208;27.620;2022-09-09T06:13:30;101412.09;;;25.94;100.00
36014;BME280;22275;43.208;27.620;2022-09-09T06:15:57;101427.78;;;25.90;100.00
36014;BME280;22275;43.208;27.620;2022-09-09T06:18:25;101419.47;;;26.08;100.00
36014;BME280;22275;43.208;27.620;2022-09-09T06:20:56;101416.72;;;26.24;100.00
36014;BME280;22275;43.208;27.620;2022-09-09T06:23:26;101413.91;;;26.01;100.00
36014;BME280;22275;43.208;27.620;2022-09-09T06:26:02;101419.09;;;26.19;100.00
36014;BME280;22275;43.208;27.620;2022-09-09T06:28:31;101425.16;;;26.21;100.00
36014;BME280;22275;43.208;27.620;2022-09-09T06:30:59;101417.25;;;27.04;100.00
36014;BME280;22275;43.208;27.620;2022-09-09T06:33:30;101433.94;;;27.30;100.00
36014;BME280;22275;43.208;27.620;2022-09-09T06:35:57;101432.38;;;27.13;100.00
36014;BME280;22275;43.208;27.620;2022-09-09T06:38:26;101430.94;;;27.02;100.00
36014;BME280;22275;43.208;27.620;2022-09-09T06:40:53;101431.06;;;27.09;100.00
36014;BME280;22275;43.208;27.620;2022-09-09T06:43:21;101429.00;;;27.11;100.00
36014;BME280;22275;43.208;27.620;2022-09-09T06:45:55;101429.25;;;27.24;100.00
36014;BME280;22275;43.208;27.620;2022-09-09T06:48:23;101426.25;;;27.19;100.00
36014;BME280;22275;43.208;27.620;2022-09-09T06:50:51;101414.25;;;28.17;100.00
36014;BME280;22275;43.208;27.620;2022-09-09T06:53:28;101412.19;;;28.05;100.00
36014;BME280;22275;43.208;27.620;2022-09-09T06:55:55;101407.63;;;28.05;100.00
36014;BME280;22275;43.208;27.620;2022-09-09T06:58:22;101411.72;;;28.16;100.00
36014;BME280;22275;43.208;27.620;2022-09-09T07:00:50;101405.66;;;28.14;100.00
36014;BME280;22275;43.208;27.620;2022-09-09T07:03:17;101412.00;;;28.21;100.00
36014;BME280;22275;43.208;27.620;2022-09-09T07:05:53;101406.94;;;28.32;100.00
36014;BME280;22275;43.208;27.620;2022-09-09T07:08:22;101421.13;;;28.34;100.00
36014;BME280;22275;43.208;27.620;2022-09-09T07:10:52;101420.63;;;28.45;100.00
36014;BME280;22275;43.208;27.620;2022-09-09T07:13:23;101415.28;;;28.52;100.00
36014;BME280;22275;43.208;27.620;2022-09-09T07:15:51;101416.06;;;28.46;100.00
36014;BME280;22275;43.208;27.620;2022-09-09T07:18:18;101404.94;;;28.41;100.00
36014;BME280;22275;43.208;27.620;2022-09-09T07:20:53;101409.09;;;28.58;100.00
36014;BME280;22275;43.208;27.620;2022-09-09T07:23:20;101398.53;;;28.84;100.00
36014;BME280;22275;43.208;27.620;2022-09-09T07:25:48;101392.38;;;28.69;100.00
36014;BME280;22275;43.208;27.620;2022-09-09T07:28:17;101403.59;;;28.87;100.00
36014;BME280;22275;43.208;27.620;2022-09-09T07:30:53;101403.72;;;29.00;100.00
36014;BME280;22275;43.208;27.620;2022-09-09T07:33:20;101391.78;;;28.74;100.00
36014;BME280;22275;43.208;27.620;2022-09-09T07:35:47;101410.44;;;28.83;100.00
36014;BME280;22275;43.208;27.620;2022-09-09T07:38:14;101416.75;;;29.12;100.00
36014;BME280;22275;43.208;27.620;2022-09-09T07:40:42;101415.28;;;29.09;100.00
36014;BME280;22275;43.208;27.620;2022-09-09T07:43:10;101409.53;;;28.97;100.00
36014;BME280;22275;43.208;27.620;2022-09-09T07:45:39;101408.72;;;29.03;100.00
36014;BME280;22275;43.208;27.620;2022-09-09T07:48:08;101406.75;;;28.91;100.00
36014;BME280;22275;43.208;27.620;2022-09-09T07:50:36;101395.06;;;28.90;100.00
36014;BME280;22275;43.208;27.620;2022-09-09T07:53:05;101396.63;;;28.99;100.00
36014;BME280;22275;43.208;27.620;2022-09-09T07:55:32;101388.84;;;28.96;100.00
36014;BME280;22275;43.208;27.620;2022-09-09T07:57:59;101373.25;;;28.77;100.00
36014;BME280;22275;43.208;27.620;2022-09-09T08:00:27;101384.34;;;28.82;100.00
36014;BME280;22275;43.208;27.620;2022-09-09T08:02:55;101389.50;;;28.98;100.00
36014;BME280;22275;43.208;27.620;2022-09-09T08:05:23;101375.78;;;29.06;97.73
36014;BME280;22275;43.208;27.620;2022-09-09T08:07:50;101370.34;;;29.06;92.69
36014;BME280;22275;43.208;27.620;2022-09-09T08:10:17;101367.41;;;29.23;89.55
36014;BME280;22275;43.208;27.620;2022-09-09T08:12:45;101370.34;;;29.55;86.42
36014;BME280;22275;43.208;27.620;2022-09-09T08:15:12;101362.88;;;29.64;83.90
36014;BME280;22275;43.208;27.620;2022-09-09T08:17:39;101351.56;;;29.54;74.18
36014;BME280;22275;43.208;27.620;2022-09-09T08:20:09;101352.00;;;29.64;76.71
36014;BME280;22275;43.208;27.620;2022-09-09T08:22:36;101342.88;;;29.78;75.61
36014;BME280;22275;43.208;27.620;2022-09-09T08:25:05;101345.38;;;29.73;70.40
36014;BME280;22275;43.208;27.620;2022-09-09T08:27:34;101327.44;;;29.79;61.50
36014;BME280;22275;43.208;27.620;2022-09-09T08:30:03;101324.25;;;30.09;60.95
36014;BME280;22275;43.208;27.620;2022-09-09T08:32:30;101317.22;;;30.28;55.33
36014;BME280;22275;43.208;27.620;2022-09-09T08:34:58;101326.47;;;30.47;53.90
36014;BME280;22275;43.208;27.620;2022-09-09T08:37:26;101324.31;;;30.23;51.98
36014;BME280;22275;43.208;27.620;2022-09-09T08:39:54;101321.34;;;30.11;50.07
36014;BME280;22275;43.208;27.620;2022-09-09T08:42:40;101317.19;;;30.22;54.34
36014;BME280;22275;43.208;27.620;2022-09-09T08:45:21;101314.72;;;30.40;56.27
36014;BME280;22275;43.208;27.620;2022-09-09T08:48:00;101314.56;;;30.48;54.97
36014;BME280;22275;43.208;27.620;2022-09-09T08:50:34;101313.50;;;30.49;54.02
36014;BME280;22275;43.208;27.620;2022-09-09T08:53:10;101305.97;;;30.57;55.47
36014;BME280;22275;43.208;27.620;2022-09-09T08:55:42;101290.28;;;30.53;58.61
36014;BME280;22275;43.208;27.620;2022-09-09T08:58:14;101308.50;;;30.79;58.27
36014;BME280;22275;43.208;27.620;2022-09-09T09:00:54;101308.06;;;30.88;57.02
36014;BME280;22275;43.208;27.620;2022-09-09T09:03:31;101299.91;;;31.14;57.33
36014;BME280;22275;43.208;27.620;2022-09-09T09:06:06;101299.09;;;30.94;56.65
36014;BME280;22275;43.208;27.620;2022-09-09T09:08:42;101306.41;;;30.81;56.11
36014;BME280;22275;43.208;27.620;2022-09-09T09:11:13;101307.69;;;30.98;56.57
36014;BME280;22275;43.208;27.620;2022-09-09T09:13:43;101293.03;;;30.99;56.26
36014;BME280;22275;43.208;27.620;2022-09-09T09:16:19;101303.66;;;31.26;56.58
36014;BME280;22275;43.208;27.620;2022-09-09T09:18:49;101299.25;;;31.32;55.64
36014;BME280;22275;43.208;27.620;2022-09-09T09:21:20;101303.66;;;31.33;55.13
36014;BME280;22275;43.208;27.620;2022-09-09T09:23:54;101309.72;;;31.55;56.36
36014;BME280;22275;43.208;27.620;2022-09-09T09:26:25;101297.09;;;31.67;53.85
36014;BME280;22275;43.208;27.620;2022-09-09T09:28:56;101302.06;;;31.76;53.00
36014;BME280;22275;43.208;27.620;2022-09-09T09:31:25;101297.94;;;31.67;52.91
36014;BME280;22275;43.208;27.620;2022-09-09T09:33:54;101310.84;;;31.85;51.92
36014;BME280;22275;43.208;27.620;2022-09-09T09:36:25;101302.03;;;31.90;53.48
36014;BME280;22275;43.208;27.620;2022-09-09T09:39:03;101302.91;;;31.83;50.85
36014;BME280;22275;43.208;27.620;2022-09-09T09:41:32;101286.22;;;31.60;50.36
36014;BME280;22275;43.208;27.620;2022-09-09T09:44:02;101270.34;;;31.38;49.03
36014;BME280;22275;43.208;27.620;2022-09-09T09:46:30;101255.47;;;31.33;49.13
36014;BME280;22275;43.208;27.620;2022-09-09T09:48:59;101273.31;;;31.23;49.25
36014;BME280;22275;43.208;27.620;2022-09-09T09:51:28;101264.44;;;31.54;49.28
36014;BME280;22275;43.208;27.620;2022-09-09T09:54:09;101257.53;;;31.58;48.72
36014;BME280;22275;43.208;27.620;2022-09-09T09:56:43;101271.16;;;31.51;48.93
36014;BME280;22275;43.208;27.620;2022-09-09T09:59:23;101269.34;;;31.83;48.11
36014;BME280;22275;43.208;27.620;2022-09-09T10:02:16;101267.13;;;32.11;47.39
36014;BME280;22275;43.208;27.620;2022-09-09T10:04:44;101255.38;;;32.11;46.67
36014;BME280;22275;43.208;27.620;2022-09-09T10:07:12;101261.19;;;31.83;46.09
36014;BME280;22275;43.208;27.620;2022-09-09T10:09:41;101259.31;;;31.77;46.13
36014;BME280;22275;43.208;27.620;2022-09-09T10:12:19;101257.44;;;31.77;47.95
36014;BME280;22275;43.208;27.620;2022-09-09T10:14:58;101263.63;;;32.04;48.34
36014;BME280;22275;43.208;27.620;2022-09-09T10:17:36;101243.63;;;32.10;46.74
36014;BME280;22275;43.208;27.620;2022-09-09T10:20:24;101238.84;;;31.99;45.84
36014;BME280;22275;43.208;27.620;2022-09-09T10:23:03;101245.81;;;31.95;45.73
36014;BME280;22275;43.208;27.620;2022-09-09T10:25:45;101238.59;;;32.14;45.48
36014;BME280;22275;43.208;27.620;2022-09-09T10:28:33;101240.72;;;32.12;44.69
36014;BME280;22275;43.208;27.620;2022-09-09T10:31:16;101237.38;;;32.10;45.13
36014;BME280;22275;43.208;27.620;2022-09-09T10:33:50;101248.56;;;31.88;43.57
36014;BME280;22275;43.208;27.620;2022-09-09T10:36:20;101241.25;;;31.82;43.56
36014;BME280;22275;43.208;27.620;2022-09-09T10:38:52;101247.97;;;31.80;43.71
36014;BME280;22275;43.208;27.620;2022-09-09T10:41:37;101252.66;;;31.73;44.21
36014;BME280;22275;43.208;27.620;2022-09-09T10:44:17;101233.06;;;31.89;43.30
36014;BME280;22275;43.208;27.620;2022-09-09T10:46:57;101238.34;;;31.84;42.52
36014;BME280;22275;43.208;27.620;2022-09-09T10:49:53;101247.97;;;31.80;43.82
36014;BME280;22275;43.208;27.620;2022-09-09T10:52:32;101249.34;;;32.02;42.19
36014;BME280;22275;43.208;27.620;2022-09-09T10:55:10;101239.28;;;31.96;41.96
36014;BME280;22275;43.208;27.620;2022-09-09T10:57:43;101229.75;;;31.80;41.76
36014;BME280;22275;43.208;27.620;2022-09-09T11:00:17;101238.94;;;31.86;41.25
36014;BME280;22275;43.208;27.620;2022-09-09T11:02:48;101239.69;;;32.00;42.01
36014;BME280;22275;43.208;27.620;2022-09-09T11:05:19;101221.91;;;32.28;40.34
36014;BME280;22275;43.208;27.620;2022-09-09T11:07:52;101228.41;;;32.27;40.10
36014;BME280;22275;43.208;27.620;2022-09-09T11:10:24;101236.94;;;32.13;40.16
36014;BME280;22275;43.208;27.620;2022-09-09T11:13:01;101231.34;;;32.01;40.44
36014;BME280;22275;43.208;27.620;2022-09-09T11:15:35;101216.88;;;31.94;38.94
36014;BME280;22275;43.208;27.620;2022-09-09T11:18:04;101233.63;;;32.04;39.00
36014;BME280;22275;43.208;27.620;2022-09-09T11:20:35;101225.13;;;32.19;38.94
36014;BME280;22275;43.208;27.620;2022-09-09T11:23:05;101214.50;;;32.11;37.92
36014;BME280;22275;43.208;27.620;2022-09-09T11:25:39;101218.38;;;32.21;38.08
36014;BME280;22275;43.208;27.620;2022-09-09T11:28:32;101216.47;;;32.28;38.62
36014;BME280;22275;43.208;27.620;2022-09-09T11:31:26;101210.03;;;32.16;38.74
36014;BME280;22275;43.208;27.620;2022-09-09T11:34:12;101203.75;;;32.16;39.99
36014;BME280;22275;43.208;27.620;2022-09-09T11:37:14;101216.34;;;32.17;39.92
36014;BME280;22275;43.208;27.620;2022-09-09T11:42:45;101208.59;;;32.38;39.14
36014;BME280;22275;43.208;27.620;2022-09-09T11:45:23;101207.00;;;32.31;40.17
36014;BME280;22275;43.208;27.620;2022-09-09T11:47:52;101200.09;;;32.28;39.23
36014;BME280;22275;43.208;27.620;2022-09-09T11:50:38;101208.00;;;32.12;39.92
36014;BME280;22275;43.208;27.620;2022-09-09T11:53:20;101199.66;;;32.31;39.87
36014;BME280;22275;43.208;27.620;2022-09-09T11:56:08;101201.88;;;32.16;39.32
36014;BME280;22275;43.208;27.620;2022-09-09T11:58:42;101202.25;;;32.44;39.53
36014;BME280;22275;43.208;27.620;2022-09-09T12:01:27;101199.50;;;32.76;38.77
36014;BME280;22275;43.208;27.620;2022-09-09T12:07:00;101177.97;;;33.04;38.86
36014;BME280;22275;43.208;27.620;2022-09-09T12:12:25;101175.06;;;32.63;38.06
36014;BME280;22275;43.208;27.620;2022-09-09T12:14:58;101177.16;;;32.85;37.24
36014;BME280;22275;43.208;27.620;2022-09-09T12:17:29;101176.16;;;32.80;37.70
36014;BME280;22275;43.208;27.620;2022-09-09T12:20:02;101179.00;;;32.67;38.26
36014;BME280;22275;43.208;27.620;2022-09-09T12:22:38;101181.75;;;32.85;38.89
36014;BME280;22275;43.208;27.620;2022-09-09T12:25:18;101164.88;;;32.94;38.56
36014;BME280;22275;43.208;27.620;2022-09-09T12:28:01;101182.66;;;32.79;58.45
36014;BME280;22275;43.208;27.620;2022-09-09T12:30:34;101180.09;;;32.41;75.19
36014;BME280;22275;43.208;27.620;2022-09-09T12:33:10;101179.28;;;32.09;84.70
36014;BME280;22275;43.208;27.620;2022-09-09T12:35:39;101175.53;;;31.72;91.26
36014;BME280;22275;43.208;27.620;2022-09-09T12:38:13;101171.84;;;31.54;94.51
36014;BME280;22275;43.208;27.620;2022-09-09T12:40:41;101175.41;;;31.48;97.29
36014;BME280;22275;43.208;27.620;2022-09-09T12:43:19;101170.84;;;31.42;96.78
36014;BME280;22275;43.208;27.620;2022-09-09T12:45:49;101171.56;;;31.11;100.00
36014;BME280;22275;43.208;27.620;2022-09-09T12:48:27;101174.03;;;31.25;100.00
36014;BME280;22275;43.208;27.620;2022-09-09T12:50:55;101168.97;;;31.36;100.00
36014;BME280;22275;43.208;27.620;2022-09-09T12:53:25;101170.75;;;31.10;100.00
36014;BME280;22275;43.208;27.620;2022-09-09T12:56:00;101172.56;;;31.23;100.00
36014;BME280;22275;43.208;27.620;2022-09-09T12:58:29;101172.53;;;31.36;100.00
36014;BME280;22275;43.208;27.620;2022-09-09T13:01:00;101166.88;;;31.38;100.00
36014;BME280;22275;43.208;27.620;2022-09-09T13:03:32;101168.75;;;31.30;100.00
36014;BME280;22275;43.208;27.620;2022-09-09T13:06:12;101153.50;;;31.29;100.00